createdAt,value
2018-09-04T00:03:27.133Z,99.90
2018-09-04T00:08:32.342Z,99.90
2018-09-04T00:13:36.820Z,99.90
2018-09-04T00:18:41.328Z,99.90
2018-09-04T00:23:44.891Z,99.90
2018-09-04T00:28:49.188Z,99.90
2018-09-04T00:33:54.155Z,99.90
2018-09-04T00:39:05.862Z,99.90
2018-09-04T00:44:09.847Z,99.90
2018-09-04T00:49:14.027Z,99.90
2018-09-04T00:54:17.464Z,99.90
2018-09-04T00:59:20.941Z,99.90
2018-09-04T01:04:24.472Z,99.90
2018-09-04T01:09:27.994Z,99.90
2018-09-04T01:14:31.524Z,99.90
2018-09-04T01:19:35.026Z,99.90
2018-09-04T01:24:38.516Z,99.90
2018-09-04T01:29:41.929Z,99.90
2018-09-04T01:34:45.292Z,99.90
2018-09-04T01:39:48.809Z,99.90
2018-09-04T01:44:52.280Z,99.90
2018-09-04T01:49:55.804Z,99.90
2018-09-04T01:54:59.259Z,99.90
2018-09-04T02:00:02.769Z,99.90
2018-09-04T02:05:06.272Z,99.90
2018-09-04T02:10:09.804Z,99.90
2018-09-04T02:15:13.323Z,99.90
2018-09-04T02:20:16.810Z,99.90
2018-09-04T02:25:20.198Z,99.90
2018-09-04T02:30:23.606Z,99.90
2018-09-04T02:35:27.013Z,99.90
2018-09-04T02:40:30.336Z,99.90
2018-09-04T02:45:33.731Z,99.90
2018-09-04T02:56:23.298Z,99.90
2018-09-04T03:01:28.495Z,99.90
2018-09-04T03:06:32.717Z,99.90
2018-09-04T03:11:36.746Z,99.90
2018-09-04T03:16:40.634Z,99.90
2018-09-04T03:21:44.821Z,99.90
2018-09-04T03:26:49.525Z,99.90
2018-09-04T03:31:52.931Z,99.90
2018-09-04T03:36:59.660Z,99.90
2018-09-04T03:42:03.985Z,99.90
2018-09-04T03:47:10.038Z,99.90
2018-09-04T03:52:13.950Z,99.90
2018-09-04T03:57:17.307Z,99.90
2018-09-04T04:02:20.700Z,99.90
2018-09-04T04:07:25.016Z,99.90
2018-09-04T04:12:28.410Z,99.90
2018-09-04T04:17:32.517Z,99.90
2018-09-04T04:22:35.956Z,99.90
2018-09-04T04:27:39.368Z,99.90
2018-09-04T04:32:46.042Z,99.90
2018-09-04T04:37:49.738Z,99.90
2018-09-04T04:42:53.109Z,99.90
2018-09-04T04:47:56.459Z,99.90
2018-09-04T04:52:59.790Z,99.90
2018-09-04T04:58:03.147Z,99.90
2018-09-04T05:03:06.507Z,99.90
2018-09-04T05:08:09.808Z,99.90
2018-09-04T05:13:13.188Z,99.90
2018-09-04T05:18:17.135Z,99.90
2018-09-04T05:23:20.470Z,99.90
2018-09-04T05:28:23.755Z,99.90
2018-09-04T05:33:43.901Z,99.90
2018-09-04T05:38:47.280Z,99.90
2018-09-04T05:43:55.193Z,99.90
2018-09-04T05:48:58.744Z,99.90
2018-09-04T05:54:02.239Z,99.90
2018-09-04T05:59:05.646Z,99.90
2018-09-04T06:04:08.934Z,99.90
2018-09-04T06:09:12.261Z,99.90
2018-09-04T06:14:15.597Z,99.90
2018-09-04T06:19:18.911Z,99.90
2018-09-04T06:24:22.265Z,99.90
2018-09-04T06:29:27.056Z,99.90
2018-09-04T06:34:31.277Z,99.90
2018-09-04T06:39:36.036Z,99.90
2018-09-04T06:44:40.004Z,99.90
2018-09-04T06:49:43.324Z,99.90
2018-09-04T06:54:46.863Z,99.90
2018-09-04T06:59:51.693Z,99.90
2018-09-04T07:04:55.117Z,99.90
2018-09-04T07:09:58.425Z,99.90
2018-09-04T07:15:02.461Z,99.90
2018-09-04T07:20:06.684Z,99.90
2018-09-04T07:25:10.435Z,99.90
2018-09-04T07:30:14.360Z,99.90
2018-09-04T07:35:18.665Z,99.90
2018-09-04T07:40:21.981Z,99.90
2018-09-04T07:45:25.301Z,99.90
2018-09-04T07:50:28.782Z,99.90
2018-09-04T07:55:32.281Z,99.90
2018-09-04T08:00:36.813Z,99.90
2018-09-04T08:05:42.838Z,99.90
2018-09-04T08:10:46.917Z,99.90
2018-09-04T08:15:51.429Z,99.90
2018-09-04T08:20:55.337Z,99.90
2018-09-04T08:25:58.869Z,99.90
2018-09-04T08:31:02.328Z,99.90
2018-09-04T08:36:06.249Z,99.90
2018-09-04T08:41:09.965Z,99.90
2018-09-04T08:46:13.454Z,99.90
2018-09-04T08:51:16.882Z,99.90
2018-09-04T08:56:26.773Z,99.90
2018-09-04T09:01:36.730Z,99.90
2018-09-04T09:06:40.085Z,99.90
2018-09-04T09:11:44.479Z,99.90
2018-09-04T09:16:48.620Z,99.90
2018-09-04T09:30:49.480Z,99.90
2018-09-04T09:35:53.472Z,99.90
2018-09-04T09:41:01.348Z,99.90
2018-09-04T09:46:05.400Z,99.90
2018-09-04T09:51:12.309Z,99.90
2018-09-04T09:56:18.940Z,99.90
2018-09-04T10:01:27.814Z,99.90
2018-09-04T10:06:33.913Z,99.90
2018-09-04T10:11:40.026Z,99.90
2018-09-04T10:16:48.820Z,99.90
2018-09-04T10:21:58.726Z,99.90
2018-09-04T10:27:03.733Z,99.90
2018-09-04T10:32:13.140Z,99.90
2018-09-04T10:37:19.556Z,99.90
2018-09-04T10:42:28.341Z,99.90
2018-09-04T10:47:34.910Z,99.90
2018-09-04T10:52:50.214Z,99.90
2018-09-04T10:58:40.056Z,99.90
2018-09-04T11:03:43.493Z,99.90
2018-09-04T11:08:46.982Z,99.90
2018-09-04T11:13:50.440Z,99.90
2018-09-04T11:18:53.892Z,99.90
2018-09-04T11:23:57.255Z,99.90
2018-09-04T11:29:02.827Z,99.90
2018-09-04T11:34:07.216Z,99.90
2018-09-04T11:39:13.892Z,99.90
2018-09-04T11:50:46.253Z,99.90
2018-09-04T11:55:56.735Z,99.90
2018-09-04T12:06:48.798Z,99.90
2018-09-04T12:12:35.293Z,99.90
2018-09-04T12:17:57.803Z,99.90
2018-09-04T12:46:41.384Z,99.90
2018-09-04T12:51:44.697Z,99.20
2018-09-04T12:56:48.048Z,99.10
2018-09-04T13:01:51.490Z,97.90
2018-09-04T13:06:54.788Z,96.80
2018-09-04T13:11:58.306Z,97.70
2018-09-04T13:17:06.635Z,97.00
2018-09-04T13:22:09.968Z,97.40
2018-09-04T13:27:14.357Z,97.70
2018-09-04T13:32:17.851Z,98.00
2018-09-04T13:37:23.142Z,97.60
2018-09-04T13:42:31.082Z,98.10
2018-09-04T13:47:34.934Z,97.80
2018-09-04T13:52:38.268Z,97.30
2018-09-04T13:57:42.028Z,97.90
2018-09-04T14:02:45.534Z,98.00
2018-09-04T14:07:49.663Z,97.20
2018-09-04T14:12:53.480Z,96.80
2018-09-04T14:17:56.824Z,95.60
2018-09-04T14:23:00.162Z,95.70
2018-09-04T14:28:04.120Z,95.80
2018-09-04T14:33:08.412Z,95.60
2018-09-04T14:38:18.380Z,94.60
2018-09-04T14:43:21.789Z,93.80
2018-09-04T14:48:26.035Z,93.10
2018-09-04T14:53:29.364Z,94.30
2018-09-04T14:58:32.773Z,95.00
2018-09-04T15:03:36.090Z,94.90
2018-09-04T15:08:39.620Z,94.20
2018-09-04T15:13:43.156Z,94.10
2018-09-04T15:18:46.459Z,94.40
2018-09-04T15:23:50.021Z,95.20
2018-09-04T15:28:53.402Z,95.60
2018-09-04T15:33:56.719Z,96.00
2018-09-04T15:39:00.177Z,95.40
2018-09-04T15:44:05.186Z,95.50
2018-09-04T15:50:15.107Z,96.30
2018-09-04T15:55:18.541Z,95.20
2018-09-04T16:00:21.964Z,95.60
2018-09-04T16:05:25.472Z,95.80
2018-09-04T16:10:28.847Z,94.50
2018-09-04T16:15:32.216Z,96.40
2018-09-04T16:20:35.638Z,93.60
2018-09-04T16:25:38.971Z,93.60
2018-09-04T16:30:43.014Z,93.50
2018-09-04T16:35:46.441Z,93.80
2018-09-04T16:40:50.328Z,94.10
2018-09-04T16:46:02.394Z,94.30
2018-09-04T16:51:07.386Z,94.90
2018-09-04T16:56:11.715Z,96.10
2018-09-04T17:01:18.971Z,96.60
2018-09-04T17:06:22.794Z,97.20
2018-09-04T17:11:27.808Z,98.00
2018-09-04T17:16:31.409Z,99.00
2018-09-04T17:21:37.450Z,99.90
2018-09-04T17:26:42.194Z,99.90
2018-09-04T17:31:45.814Z,99.90
2018-09-04T17:36:49.949Z,99.90
2018-09-04T17:41:55.117Z,99.90
2018-09-04T17:47:00.266Z,99.90
2018-09-04T17:52:07.776Z,99.90
2018-09-04T17:57:14.321Z,99.90
2018-09-04T18:02:19.877Z,99.90
2018-09-04T18:07:23.890Z,99.90
2018-09-04T18:12:33.676Z,99.90
2018-09-04T18:17:41.524Z,99.90
2018-09-04T18:22:45.184Z,99.90
2018-09-04T18:27:49.361Z,99.90
2018-09-04T18:32:53.143Z,99.90
2018-09-04T18:37:57.068Z,99.90
2018-09-04T18:43:00.870Z,99.90
2018-09-04T18:48:18.116Z,99.90
2018-09-04T18:53:21.825Z,99.90
2018-09-04T18:58:27.756Z,99.90
2018-09-04T19:03:36.883Z,99.90
2018-09-04T19:08:41.981Z,99.90
2018-09-04T19:13:46.788Z,99.90
2018-09-04T19:19:18.500Z,99.90
2018-09-04T19:24:32.541Z,99.90
2018-09-04T19:29:49.813Z,99.90
2018-09-04T19:35:05.319Z,99.90
2018-09-04T19:40:23.279Z,99.90
2018-09-04T19:45:28.136Z,99.90
2018-09-04T20:13:46.930Z,99.90
2018-09-04T20:18:53.516Z,99.90
2018-09-04T20:23:56.957Z,99.90
2018-09-04T20:29:01.568Z,99.90
2018-09-04T20:34:05.024Z,99.90
2018-09-04T20:39:08.378Z,99.90
2018-09-04T20:44:11.792Z,99.90
2018-09-04T20:49:16.536Z,99.90
2018-09-04T20:54:20.039Z,99.90
2018-09-04T20:59:34.553Z,99.90
2018-09-04T21:04:49.222Z,99.90
2018-09-04T21:09:59.987Z,99.90
2018-09-04T21:15:03.436Z,99.90
2018-09-04T21:20:06.712Z,99.90
2018-09-04T21:25:10.335Z,99.90
2018-09-04T21:30:13.752Z,99.90
2018-09-04T21:35:17.128Z,99.90
2018-09-04T21:40:20.413Z,99.90
2018-09-04T21:45:23.812Z,99.90
2018-09-04T21:50:27.117Z,99.90
2018-09-04T21:55:31.092Z,99.90
2018-09-04T22:00:34.468Z,99.90
2018-09-04T22:05:39.786Z,99.90
2018-09-04T22:10:44.835Z,99.90
2018-09-04T22:15:50.548Z,99.90
2018-09-04T22:20:54.318Z,99.90
2018-09-04T22:26:01.599Z,99.90
2018-09-04T22:31:05.176Z,99.90
2018-09-04T22:36:08.667Z,99.90
2018-09-04T22:41:12.011Z,99.90
2018-09-04T22:46:15.340Z,99.90
2018-09-04T22:51:37.856Z,99.90
2018-09-04T22:56:47.903Z,99.90
2018-09-04T23:01:51.324Z,99.90
2018-09-04T23:06:54.694Z,99.90
2018-09-04T23:11:58.329Z,99.90
2018-09-04T23:17:01.658Z,99.90
2018-09-04T23:22:05.411Z,99.90
2018-09-04T23:27:09.049Z,99.90
2018-09-04T23:32:12.337Z,99.90
2018-09-04T23:37:15.738Z,99.90
2018-09-04T23:42:19.028Z,99.90
2018-09-04T23:47:22.369Z,99.90
2018-09-04T23:52:25.742Z,99.90
2018-09-04T23:57:29.186Z,99.90
